createdAt,value
2023-01-10T00:00:52.622Z,22.27
2023-01-10T00:03:20.991Z,21.60
2023-01-10T00:05:49.300Z,24.75
2023-01-10T00:08:18.263Z,25.98
2023-01-10T00:10:46.579Z,25.20
2023-01-10T00:13:16.971Z,25.65
2023-01-10T00:15:46.028Z,28.42
2023-01-10T00:18:14.598Z,27.67
2023-01-10T00:20:42.908Z,27.17
2023-01-10T00:23:11.177Z,27.33
2023-01-10T00:25:39.685Z,26.38
2023-01-10T00:28:08.184Z,26.75
2023-01-10T00:30:37.785Z,26.15
2023-01-10T00:33:06.374Z,25.73
2023-01-10T00:35:35.299Z,26.13
2023-01-10T00:38:03.401Z,27.90
2023-01-10T00:40:32.388Z,26.88
2023-01-10T00:43:03.334Z,25.65
2023-01-10T00:45:31.502Z,26.20
2023-01-10T00:47:59.853Z,26.52
2023-01-10T00:50:28.126Z,25.73
2023-01-10T00:52:56.223Z,26.17
2023-01-10T00:55:24.641Z,27.65
2023-01-10T00:57:53.285Z,24.58
2023-01-10T01:00:21.545Z,25.00
2023-01-10T01:02:50.106Z,24.60
2023-01-10T01:05:19.454Z,25.52
2023-01-10T01:07:52.337Z,24.95
2023-01-10T01:10:21.016Z,25.40
2023-01-10T01:15:17.070Z,23.73
2023-01-10T01:17:45.368Z,25.02
2023-01-10T01:20:14.044Z,24.70
2023-01-10T01:22:42.385Z,26.13
2023-01-10T01:25:10.743Z,25.45
2023-01-10T01:27:39.063Z,27.15
2023-01-10T01:30:08.551Z,27.77
2023-01-10T01:32:36.944Z,26.05
2023-01-10T01:35:06.975Z,29.95
2023-01-10T01:37:35.276Z,26.30
2023-01-10T01:40:03.786Z,29.17
2023-01-10T01:42:34.556Z,30.05
2023-01-10T01:45:08.845Z,30.83
2023-01-10T01:47:45.473Z,30.70
2023-01-10T01:50:25.612Z,32.38
2023-01-10T01:52:57.496Z,33.08
2023-01-10T01:55:27.970Z,38.78
2023-01-10T01:57:59.750Z,39.15
2023-01-10T02:00:28.001Z,37.08
2023-01-10T02:03:03.058Z,39.90
2023-01-10T02:05:34.711Z,37.40
2023-01-10T02:08:03.428Z,38.72
2023-01-10T02:10:46.949Z,38.30
2023-01-10T02:13:18.817Z,38.50
2023-01-10T02:15:47.082Z,38.45
2023-01-10T02:18:15.711Z,37.60
2023-01-10T02:20:54.851Z,39.63
2023-01-10T02:23:26.192Z,38.55
2023-01-10T02:26:18.771Z,39.60
2023-01-10T02:29:22.289Z,41.17
2023-01-10T02:32:14.542Z,38.60
2023-01-10T02:34:57.954Z,40.22
2023-01-10T02:37:47.885Z,42.15
2023-01-10T02:40:52.072Z,40.80
2023-01-10T02:43:28.785Z,42.08
2023-01-10T02:46:22.087Z,42.20
2023-01-10T02:48:50.288Z,40.70
2023-01-10T02:51:27.510Z,40.35
2023-01-10T02:54:01.486Z,41.17
2023-01-10T02:56:41.760Z,40.25
2023-01-10T02:59:28.438Z,40.15
2023-01-10T03:02:34.307Z,37.15
2023-01-10T03:05:33.598Z,39.15
2023-01-10T03:08:04.809Z,40.42
2023-01-10T03:10:59.654Z,40.88
2023-01-10T03:13:45.205Z,39.17
2023-01-10T03:16:18.819Z,37.05
2023-01-10T03:18:58.707Z,40.08
2023-01-10T03:21:29.026Z,38.97
2023-01-10T03:24:06.430Z,41.33
2023-01-10T03:26:42.830Z,40.30
2023-01-10T03:29:13.672Z,40.17
2023-01-10T03:31:49.650Z,37.75
2023-01-10T03:34:18.413Z,41.45
2023-01-10T03:37:00.736Z,38.70
2023-01-10T03:39:56.724Z,43.13
2023-01-10T03:42:34.872Z,38.95
2023-01-10T03:45:08.723Z,41.75
2023-01-10T03:47:42.873Z,39.90
2023-01-10T03:50:24.769Z,41.97
2023-01-10T03:52:53.197Z,40.22
2023-01-10T03:55:30.091Z,41.25
2023-01-10T03:57:58.424Z,38.60
2023-01-10T04:00:26.584Z,39.25
2023-01-10T04:02:54.888Z,40.92
2023-01-10T04:05:23.265Z,39.45
2023-01-10T04:07:51.327Z,38.60
2023-01-10T04:10:19.674Z,39.08
2023-01-10T04:12:47.921Z,39.78
2023-01-10T04:15:16.263Z,38.55
2023-01-10T04:17:44.437Z,41.00
2023-01-10T04:20:12.937Z,39.17
2023-01-10T04:22:41.688Z,39.30
2023-01-10T04:25:10.132Z,38.75
2023-01-10T04:27:38.529Z,39.83
2023-01-10T04:30:07.471Z,40.20
2023-01-10T04:32:35.978Z,40.05
2023-01-10T04:37:32.099Z,39.40
2023-01-10T04:40:00.408Z,37.13
2023-01-10T04:42:28.705Z,40.20
2023-01-10T04:44:56.900Z,39.05
2023-01-10T04:47:25.135Z,41.63
2023-01-10T04:49:53.356Z,40.05
2023-01-10T04:52:21.434Z,41.65
2023-01-10T04:54:49.738Z,39.53
2023-01-10T04:57:18.147Z,41.17
2023-01-10T04:59:46.358Z,39.92
2023-01-10T05:02:14.633Z,39.38
2023-01-10T05:04:43.030Z,41.90
2023-01-10T05:07:11.226Z,41.33
2023-01-10T05:09:39.567Z,39.20
2023-01-10T05:12:07.757Z,37.83
2023-01-10T05:14:35.935Z,37.72
2023-01-10T05:17:04.156Z,39.55
2023-01-10T05:19:32.455Z,39.33
2023-01-10T05:22:00.749Z,38.75
2023-01-10T05:24:28.963Z,36.58
2023-01-10T05:26:57.129Z,38.80
2023-01-10T05:29:25.331Z,40.35
2023-01-10T05:31:53.682Z,38.38
2023-01-10T05:34:22.300Z,39.45
2023-01-10T05:36:50.442Z,38.28
2023-01-10T05:39:18.885Z,37.92
2023-01-10T05:41:47.101Z,39.95
2023-01-10T05:44:15.379Z,38.55
2023-01-10T05:46:43.503Z,39.15
2023-01-10T05:49:11.801Z,40.67
2023-01-10T05:51:40.266Z,39.90
2023-01-10T05:54:08.991Z,39.15
2023-01-10T05:59:08.029Z,37.97
2023-01-10T06:01:42.323Z,38.75
2023-01-10T06:04:10.561Z,35.38
2023-01-10T06:06:38.796Z,36.35
2023-01-10T06:09:07.015Z,37.28
2023-01-10T06:11:35.348Z,38.22
2023-01-10T06:14:04.052Z,37.65
2023-01-10T06:19:00.208Z,37.85
2023-01-10T06:21:28.422Z,37.35
2023-01-10T06:23:56.714Z,36.92
2023-01-10T06:26:25.034Z,35.85
2023-01-10T06:28:53.196Z,35.70
2023-01-10T06:31:22.687Z,37.22
2023-01-10T06:33:54.088Z,37.00
2023-01-10T06:36:22.317Z,34.67
2023-01-10T06:38:50.630Z,34.17
2023-01-10T06:41:18.895Z,37.03
2023-01-10T06:43:48.356Z,36.38
2023-01-10T06:46:19.795Z,33.08
2023-01-10T06:48:48.936Z,35.85
2023-01-10T06:51:20.050Z,36.70
2023-01-10T06:53:49.069Z,36.05
2023-01-10T06:58:45.121Z,36.28
2023-01-10T07:01:19.270Z,35.63
2023-01-10T07:03:47.621Z,33.67
2023-01-10T07:06:16.531Z,34.58
2023-01-10T07:11:15.875Z,31.75
2023-01-10T07:13:44.155Z,33.90
2023-01-10T07:16:15.197Z,36.78
2023-01-10T07:18:44.124Z,34.97
2023-01-10T07:23:40.832Z,34.58
2023-01-10T07:26:11.852Z,32.92
2023-01-10T07:28:40.048Z,32.38
2023-01-10T07:31:08.393Z,32.75
2023-01-10T07:33:36.701Z,34.03
2023-01-10T07:36:05.252Z,35.50
2023-01-10T07:38:33.447Z,33.85
2023-01-10T07:41:05.505Z,31.30
2023-01-10T07:43:35.382Z,34.30
2023-01-10T07:46:08.048Z,33.17
2023-01-10T07:48:36.918Z,31.92
2023-01-10T07:53:33.936Z,33.65
2023-01-10T07:56:03.796Z,33.92
2023-01-10T07:58:32.206Z,33.15
2023-01-10T08:01:02.391Z,32.42
2023-01-10T08:03:31.645Z,34.15
2023-01-10T08:06:04.957Z,34.63
2023-01-10T08:08:34.358Z,34.70
2023-01-10T08:11:03.166Z,33.67
2023-01-10T08:13:32.901Z,36.28
2023-01-10T08:16:04.704Z,35.38
2023-01-10T08:18:33.159Z,36.03
2023-01-10T08:21:01.408Z,33.35
2023-01-10T08:23:29.553Z,37.28
2023-01-10T08:25:59.733Z,36.63
2023-01-10T08:28:28.444Z,35.95
2023-01-10T08:33:25.721Z,38.90
2023-01-10T08:35:53.875Z,34.95
2023-01-10T08:38:22.119Z,34.35
2023-01-10T08:40:50.450Z,35.08
2023-01-10T08:43:18.608Z,35.60
2023-01-10T08:45:47.213Z,35.83
2023-01-10T08:48:15.438Z,36.28
2023-01-10T08:50:43.764Z,34.80
2023-01-10T08:53:12.089Z,34.72
2023-01-10T08:55:40.368Z,33.20
2023-01-10T08:58:09.872Z,35.42
2023-01-10T09:00:38.138Z,33.58
2023-01-10T09:03:09.044Z,35.58
2023-01-10T09:05:37.635Z,33.38
2023-01-10T09:08:06.114Z,37.60
2023-01-10T09:10:34.408Z,35.58
2023-01-10T09:13:02.659Z,35.55
2023-01-10T09:15:33.802Z,34.80
2023-01-10T09:18:04.795Z,35.78
2023-01-10T09:20:35.686Z,36.97
2023-01-10T09:23:14.710Z,34.33
2023-01-10T09:25:42.988Z,35.10
2023-01-10T09:28:11.201Z,33.28
2023-01-10T09:30:39.634Z,34.08
2023-01-10T09:33:08.457Z,32.55
2023-01-10T09:35:38.750Z,35.40
2023-01-10T09:38:10.969Z,33.42
2023-01-10T09:44:11.880Z,33.75
2023-01-10T09:46:52.435Z,33.75
2023-01-10T09:49:39.361Z,31.17
2023-01-10T09:52:32.648Z,31.95
2023-01-10T09:55:26.270Z,31.80
2023-01-10T09:57:58.192Z,33.50
2023-01-10T10:00:40.114Z,33.47
2023-01-10T10:03:35.792Z,32.65
2023-01-10T10:06:12.113Z,30.13
2023-01-10T10:08:47.393Z,31.52
2023-01-10T10:11:27.941Z,31.17
2023-01-10T10:14:15.718Z,30.85
2023-01-10T10:16:59.425Z,29.90
2023-01-10T10:19:56.652Z,29.17
2023-01-10T10:22:57.633Z,30.13
2023-01-10T10:25:56.514Z,29.90
2023-01-10T10:28:55.064Z,30.00
2023-01-10T10:31:34.248Z,28.85
2023-01-10T10:34:30.449Z,30.65
2023-01-10T10:37:05.124Z,27.52
2023-01-10T10:39:59.336Z,29.85
2023-01-10T10:42:36.630Z,28.60
2023-01-10T10:45:41.924Z,28.67
2023-01-10T10:48:28.011Z,29.08
2023-01-10T10:51:26.855Z,28.92
2023-01-10T10:53:57.281Z,29.88
2023-01-10T10:56:28.173Z,26.25
2023-01-10T10:58:59.567Z,28.25
2023-01-10T11:01:28.069Z,29.10
2023-01-10T11:04:01.013Z,28.92
2023-01-10T11:06:33.999Z,25.75
2023-01-10T11:09:05.810Z,28.10
2023-01-10T11:11:38.531Z,28.98
2023-01-10T11:14:09.323Z,29.25
2023-01-10T11:16:39.213Z,25.92
2023-01-10T11:19:28.084Z,26.65
2023-01-10T11:22:06.342Z,26.73
2023-01-10T11:24:42.406Z,26.60
2023-01-10T11:27:26.239Z,27.75
2023-01-10T11:30:21.073Z,26.98
2023-01-10T11:33:07.508Z,27.60
2023-01-10T11:35:38.631Z,26.80
2023-01-10T11:38:20.574Z,26.33
2023-01-10T11:41:02.555Z,25.05
2023-01-10T11:43:38.311Z,24.83
2023-01-10T11:46:15.612Z,25.55
2023-01-10T11:49:06.325Z,25.08
2023-01-10T11:51:41.527Z,26.00
2023-01-10T11:54:19.967Z,27.60
2023-01-10T11:57:16.746Z,26.13
2023-01-10T11:59:55.107Z,26.52
2023-01-10T12:02:49.557Z,25.27
2023-01-10T12:05:22.897Z,26.23
2023-01-10T12:07:58.501Z,25.02
2023-01-10T12:10:29.342Z,24.95
2023-01-10T12:13:19.330Z,22.90
2023-01-10T12:15:47.720Z,24.15
2023-01-10T12:18:16.341Z,25.15
2023-01-10T12:23:25.190Z,23.85
2023-01-10T12:26:07.106Z,23.92
2023-01-10T12:28:46.386Z,23.30
2023-01-10T12:31:16.227Z,22.15
2023-01-10T12:34:01.949Z,23.65
2023-01-10T12:36:32.900Z,24.02
2023-01-10T12:39:13.143Z,22.73
2023-01-10T12:42:10.729Z,24.13
2023-01-10T12:44:43.113Z,22.10
2023-01-10T12:47:40.488Z,23.17
2023-01-10T12:50:21.590Z,21.75
2023-01-10T12:53:01.141Z,22.80
2023-01-10T12:55:36.794Z,21.48
2023-01-10T12:58:06.043Z,22.42
2023-01-10T13:00:48.335Z,20.85
2023-01-10T13:03:21.485Z,22.08
2023-01-10T13:05:50.762Z,20.95
2023-01-10T13:08:28.620Z,20.90
2023-01-10T13:11:00.717Z,20.25
2023-01-10T13:13:37.700Z,21.33
2023-01-10T13:16:27.262Z,21.02
2023-01-10T13:19:18.807Z,20.98
2023-01-10T13:21:47.204Z,20.02
2023-01-10T13:24:25.855Z,19.75
2023-01-10T13:27:02.436Z,20.45
2023-01-10T13:29:52.232Z,20.55
2023-01-10T13:32:24.896Z,20.35
2023-01-10T13:34:53.619Z,20.60
2023-01-10T13:40:01.836Z,19.15
2023-01-10T13:42:35.341Z,19.00
2023-01-10T13:45:03.659Z,19.42
2023-01-10T13:47:41.052Z,19.80
2023-01-10T13:50:24.806Z,19.48
2023-01-10T13:53:04.812Z,20.70
2023-01-10T13:55:39.953Z,20.05
2023-01-10T13:58:17.481Z,19.85
2023-01-10T14:00:53.971Z,19.33
2023-01-10T14:03:45.372Z,20.60
2023-01-10T14:06:28.885Z,17.73
2023-01-10T14:09:00.001Z,18.98
2023-01-10T14:11:53.003Z,19.88
2023-01-10T14:14:21.270Z,19.25
2023-01-10T14:16:52.825Z,18.95
2023-01-10T14:19:33.390Z,18.20
2023-01-10T14:22:03.733Z,18.85
2023-01-10T14:24:53.187Z,18.50
2023-01-10T14:27:22.379Z,17.33
2023-01-10T14:30:02.226Z,17.63
2023-01-10T14:32:36.784Z,18.60
2023-01-10T14:35:16.010Z,17.58
2023-01-10T14:37:48.494Z,18.42
2023-01-10T14:40:37.660Z,18.83
2023-01-10T14:43:18.498Z,18.05
2023-01-10T14:46:01.472Z,17.17
2023-01-10T14:48:36.054Z,17.60
2023-01-10T14:51:25.332Z,18.58
2023-01-10T14:54:01.988Z,15.05
2023-01-10T14:56:52.082Z,17.20
2023-01-10T14:59:24.707Z,17.95
2023-01-10T15:01:57.172Z,17.65
2023-01-10T15:04:28.634Z,17.45
2023-01-10T15:07:02.453Z,17.60
2023-01-10T15:09:32.592Z,16.75
2023-01-10T15:12:04.523Z,17.52
2023-01-10T15:14:33.973Z,17.65
2023-01-10T15:17:04.846Z,17.08
2023-01-10T15:19:37.627Z,17.45
2023-01-10T15:22:32.179Z,16.38
2023-01-10T15:25:01.841Z,17.08
2023-01-10T15:27:31.213Z,17.83
2023-01-10T15:29:59.920Z,17.05
2023-01-10T15:34:58.940Z,16.98
2023-01-10T15:37:30.134Z,16.52
2023-01-10T15:39:58.590Z,16.67
2023-01-10T15:42:27.848Z,16.33
2023-01-10T15:44:56.257Z,16.30
2023-01-10T15:47:54.463Z,19.08
2023-01-10T15:50:34.504Z,17.92
2023-01-10T15:53:06.303Z,16.48
2023-01-10T15:55:41.442Z,16.40
2023-01-10T15:58:37.057Z,16.67
2023-01-10T16:01:05.731Z,16.50
2023-01-10T16:03:55.448Z,16.60
2023-01-10T16:06:35.676Z,16.27
2023-01-10T16:09:09.602Z,15.88
2023-01-10T16:11:46.925Z,15.88
2023-01-10T16:14:15.424Z,17.70
2023-01-10T16:16:43.743Z,15.02
2023-01-10T16:19:14.501Z,15.77
2023-01-10T16:21:45.927Z,17.00
2023-01-10T16:24:23.984Z,16.50
2023-01-10T16:26:52.754Z,16.38
2023-01-10T16:29:21.022Z,17.00
2023-01-10T16:31:52.514Z,14.80
2023-01-10T16:34:21.517Z,17.05
2023-01-10T16:36:49.798Z,16.45
2023-01-10T16:39:23.244Z,16.30
2023-01-10T16:41:51.475Z,17.13
2023-01-10T16:44:19.621Z,16.15
2023-01-10T16:46:47.983Z,15.82
2023-01-10T16:49:16.237Z,16.63
2023-01-10T16:51:44.645Z,16.45
2023-01-10T16:54:17.853Z,14.63
2023-01-10T16:56:46.804Z,16.50
2023-01-10T16:59:16.408Z,15.57
2023-01-10T17:01:59.181Z,15.60
2023-01-10T17:04:31.200Z,16.08
2023-01-10T17:06:59.731Z,15.98
2023-01-10T17:09:30.328Z,17.42
2023-01-10T17:12:11.559Z,14.75
2023-01-10T17:14:40.095Z,15.35
2023-01-10T17:17:08.299Z,14.20
2023-01-10T17:19:36.709Z,14.32
2023-01-10T17:22:05.126Z,16.20
2023-01-10T17:24:33.325Z,15.02
2023-01-10T17:27:01.629Z,14.98
2023-01-10T17:29:30.979Z,14.13
2023-01-10T17:31:59.286Z,14.70
2023-01-10T17:36:55.993Z,14.55
2023-01-10T17:39:24.462Z,15.02
2023-01-10T17:41:52.841Z,14.63
2023-01-10T17:44:20.997Z,14.57
2023-01-10T17:46:49.194Z,15.48
2023-01-10T17:49:17.687Z,15.27
2023-01-10T17:51:45.910Z,15.43
2023-01-10T17:54:14.188Z,13.65
2023-01-10T17:56:42.921Z,14.23
2023-01-10T18:01:39.392Z,14.98
2023-01-10T18:04:08.013Z,14.15
2023-01-10T18:06:36.407Z,14.30
2023-01-10T18:09:04.983Z,14.93
2023-01-10T18:11:33.320Z,14.77
2023-01-10T18:14:01.636Z,14.82
2023-01-10T18:16:30.056Z,15.40
2023-01-10T18:18:58.391Z,13.77
2023-01-10T18:21:26.632Z,14.30
2023-01-10T18:23:57.810Z,14.20
2023-01-10T18:26:26.553Z,13.95
2023-01-10T18:28:54.739Z,15.07
2023-01-10T18:31:23.158Z,14.45
2023-01-10T18:33:51.822Z,15.43
2023-01-10T18:36:22.547Z,16.02
2023-01-10T18:38:51.734Z,14.55
2023-01-10T18:41:21.415Z,14.60
2023-01-10T18:43:49.847Z,14.25
2023-01-10T18:46:21.231Z,14.68
2023-01-10T18:48:52.741Z,15.40
2023-01-10T18:51:21.093Z,14.75
2023-01-10T18:53:49.432Z,15.32
2023-01-10T18:56:17.798Z,14.50
2023-01-10T18:58:46.059Z,13.30
2023-01-10T19:01:19.689Z,14.30
2023-01-10T19:03:48.499Z,14.70
2023-01-10T19:06:19.790Z,14.68
2023-01-10T19:08:48.289Z,14.15
2023-01-10T19:11:17.033Z,16.33
2023-01-10T19:16:24.264Z,14.23
2023-01-10T19:18:57.687Z,14.80
2023-01-10T19:21:28.192Z,15.65
2023-01-10T19:23:57.384Z,14.73
2023-01-10T19:26:26.171Z,14.73
2023-01-10T19:28:54.932Z,14.88
2023-01-10T19:33:53.151Z,16.25
2023-01-10T19:38:55.310Z,15.20
2023-01-10T19:41:24.571Z,14.43
2023-01-10T19:44:01.454Z,15.40
2023-01-10T19:46:31.061Z,15.30
2023-01-10T19:49:00.474Z,14.93
2023-01-10T19:51:28.848Z,14.43
2023-01-10T19:53:56.925Z,14.95
2023-01-10T19:56:25.314Z,16.02
2023-01-10T19:58:55.283Z,14.77
2023-01-10T20:01:26.267Z,15.55
2023-01-10T20:03:58.049Z,14.98
2023-01-10T20:06:27.713Z,13.90
2023-01-10T20:08:56.951Z,15.43
2023-01-10T20:11:27.297Z,16.02
2023-01-10T20:13:55.753Z,14.88
2023-01-10T20:16:24.712Z,15.70
2023-01-10T20:18:53.143Z,15.38
2023-01-10T20:21:21.720Z,14.77
2023-01-10T20:23:50.029Z,15.73
2023-01-10T20:26:25.680Z,15.00
2023-01-10T20:28:54.843Z,15.63
2023-01-10T20:31:24.895Z,16.73
2023-01-10T20:33:53.426Z,17.42
2023-01-10T20:36:23.485Z,17.83
2023-01-10T20:38:52.314Z,18.17
2023-01-10T20:43:54.103Z,18.10
2023-01-10T20:46:24.800Z,16.52
2023-01-10T20:48:54.917Z,17.50
2023-01-10T20:51:26.533Z,17.90
2023-01-10T20:53:55.141Z,19.92
2023-01-10T20:56:25.916Z,15.90
2023-01-10T20:58:55.202Z,17.83
2023-01-10T21:01:34.012Z,18.75
2023-01-10T21:04:04.436Z,19.17
2023-01-10T21:06:36.686Z,18.42
2023-01-10T21:09:06.163Z,19.20
2023-01-10T21:11:47.555Z,18.10
2023-01-10T21:14:20.395Z,17.23
2023-01-10T21:16:48.525Z,18.20
2023-01-10T21:19:17.088Z,18.67
2023-01-10T21:21:45.636Z,18.23
2023-01-10T21:24:14.755Z,18.17
2023-01-10T21:26:43.065Z,18.73
2023-01-10T21:29:13.082Z,18.60
2023-01-10T21:31:41.684Z,18.73
2023-01-10T21:34:09.981Z,17.60
2023-01-10T21:36:38.426Z,18.25
2023-01-10T21:39:06.861Z,17.92
2023-01-10T21:41:35.149Z,19.17
2023-01-10T21:44:05.258Z,18.67
2023-01-10T21:46:33.964Z,20.50
2023-01-10T21:49:05.565Z,18.88
2023-01-10T21:51:34.018Z,19.35
2023-01-10T21:54:02.391Z,19.08
2023-01-10T21:56:30.815Z,16.23
2023-01-10T21:58:59.123Z,19.25
2023-01-10T22:01:27.412Z,20.23
2023-01-10T22:03:56.044Z,20.55
2023-01-10T22:06:24.384Z,20.25
2023-01-10T22:08:52.597Z,20.10
2023-01-10T22:11:20.825Z,19.60
2023-01-10T22:13:50.352Z,20.55
2023-01-10T22:16:18.737Z,21.35
2023-01-10T22:18:47.081Z,21.30
2023-01-10T22:21:15.306Z,22.45
2023-01-10T22:23:43.953Z,22.30
2023-01-10T22:28:41.336Z,21.58
2023-01-10T22:31:09.847Z,21.48
2023-01-10T22:33:39.080Z,21.70
2023-01-10T22:36:13.339Z,23.67
2023-01-10T22:38:43.028Z,23.13
2023-01-10T22:41:19.739Z,23.80
2023-01-10T22:43:49.549Z,22.67
2023-01-10T22:46:17.763Z,23.48
2023-01-10T22:48:46.701Z,23.95
2023-01-10T22:51:16.743Z,23.48
2023-01-10T22:53:53.341Z,23.77
2023-01-10T22:56:22.312Z,24.65
2023-01-10T22:58:52.444Z,23.92
2023-01-10T23:01:22.187Z,23.15
2023-01-10T23:03:51.045Z,23.60
2023-01-10T23:08:47.883Z,24.15
2023-01-10T23:11:18.023Z,24.38
2023-01-10T23:13:47.682Z,23.17
2023-01-10T23:16:19.097Z,24.80
2023-01-10T23:18:51.419Z,25.30
2023-01-10T23:21:19.652Z,25.38
2023-01-10T23:23:47.752Z,26.48
2023-01-10T23:26:16.236Z,26.98
2023-01-10T23:28:49.717Z,26.83
2023-01-10T23:31:23.072Z,24.10
2023-01-10T23:33:52.861Z,27.00
2023-01-10T23:36:21.226Z,25.75
2023-01-10T23:38:49.432Z,27.73
2023-01-10T23:41:18.044Z,26.05
2023-01-10T23:43:46.213Z,27.15
2023-01-10T23:46:14.656Z,28.75
2023-01-10T23:48:43.028Z,27.48
2023-01-10T23:51:11.443Z,28.27
2023-01-10T23:53:40.597Z,27.75
2023-01-10T23:56:13.985Z,28.83
2023-01-10T23:58:42.610Z,27.60
